createdAt,value
2023-03-05T00:01:13.541Z,3.57
2023-03-05T00:04:10.967Z,3.57
2023-03-05T00:07:12.570Z,3.56
2023-03-05T00:10:10.001Z,3.57
2023-03-05T00:13:08.386Z,3.58
2023-03-05T00:16:05.929Z,3.58
2023-03-05T00:19:03.742Z,3.58
2023-03-05T00:22:01.493Z,3.57
2023-03-05T00:24:58.953Z,3.56
2023-03-05T00:27:57.164Z,3.55
2023-03-05T00:30:54.651Z,3.52
2023-03-05T00:33:52.319Z,3.50
2023-03-05T00:36:49.799Z,3.48
2023-03-05T00:39:47.508Z,3.45
2023-03-05T00:42:44.984Z,3.43
2023-03-05T00:45:42.800Z,3.43
2023-03-05T00:48:40.474Z,3.42
2023-03-05T00:51:37.929Z,3.42
2023-03-05T00:54:35.714Z,3.42
2023-03-05T00:57:33.196Z,3.41
2023-03-05T01:00:30.924Z,3.42
2023-03-05T01:03:28.420Z,3.42
2023-03-05T01:06:26.238Z,3.42
2023-03-05T01:09:25.665Z,3.41
2023-03-05T01:12:23.103Z,3.40
2023-03-05T01:15:22.007Z,3.40
2023-03-05T01:18:19.471Z,3.40
2023-03-05T01:21:17.217Z,3.39
2023-03-05T01:24:14.641Z,3.39
2023-03-05T01:27:12.252Z,3.37
2023-03-05T01:30:09.693Z,3.38
2023-03-05T01:33:07.322Z,3.38
2023-03-05T01:36:04.837Z,3.39
2023-03-05T01:39:03.091Z,3.37
2023-03-05T01:42:00.880Z,3.37
2023-03-05T01:44:58.328Z,3.38
2023-03-05T01:47:55.943Z,3.38
2023-03-05T01:50:53.391Z,3.38
2023-03-05T01:53:51.031Z,3.38
2023-03-05T01:56:48.463Z,3.38
2023-03-05T01:59:46.257Z,3.38
2023-03-05T02:02:43.911Z,3.38
2023-03-05T02:05:42.392Z,3.38
2023-03-05T02:08:40.026Z,3.38
2023-03-05T02:11:37.496Z,3.37
2023-03-05T02:14:35.281Z,3.36
2023-03-05T02:17:32.738Z,3.35
2023-03-05T02:20:30.451Z,3.35
2023-03-05T02:23:27.932Z,3.35
2023-03-05T02:26:26.467Z,3.35
2023-03-05T02:29:23.914Z,3.35
2023-03-05T02:32:21.648Z,3.35
2023-03-05T02:35:19.445Z,3.35
2023-03-05T02:38:16.915Z,3.35
2023-03-05T02:41:14.700Z,3.34
2023-03-05T02:44:12.385Z,3.33
2023-03-05T02:47:09.886Z,3.33
2023-03-05T02:50:07.585Z,3.33
2023-03-05T02:53:05.078Z,3.32
2023-03-05T02:56:02.955Z,3.31
2023-03-05T02:59:00.456Z,3.31
2023-03-05T03:01:58.106Z,3.32
2023-03-05T03:04:55.561Z,3.33
2023-03-05T03:07:53.227Z,3.33
2023-03-05T03:10:51.668Z,3.34
2023-03-05T03:13:49.140Z,3.34
2023-03-05T03:16:46.788Z,3.34
2023-03-05T03:19:44.264Z,3.34
2023-03-05T03:22:42.521Z,3.34
2023-03-05T03:25:39.987Z,3.35
2023-03-05T03:28:37.700Z,3.35
2023-03-05T03:31:35.170Z,3.37
2023-03-05T03:34:32.996Z,3.37
2023-03-05T03:37:30.444Z,3.39
2023-03-05T03:40:28.226Z,3.40
2023-03-05T03:43:25.913Z,3.41
2023-03-05T03:46:23.460Z,3.41
2023-03-05T03:49:21.395Z,3.42
2023-03-05T03:52:18.868Z,3.43
2023-03-05T03:55:16.636Z,3.45
2023-03-05T03:58:14.102Z,3.47
2023-03-05T04:01:11.858Z,3.48
2023-03-05T04:04:09.750Z,3.50
2023-03-05T04:07:07.582Z,3.50
2023-03-05T04:10:05.373Z,3.50
2023-03-05T04:13:02.805Z,3.51
2023-03-05T04:16:00.647Z,3.50
2023-03-05T04:18:58.097Z,3.50
2023-03-05T04:21:55.697Z,3.51
2023-03-05T04:24:53.162Z,3.52
2023-03-05T04:27:50.837Z,3.50
2023-03-05T04:30:48.330Z,3.51
2023-03-05T04:33:45.938Z,3.52
2023-03-05T04:36:43.387Z,3.53
2023-03-05T04:39:41.051Z,3.52
2023-03-05T04:42:38.728Z,3.51
2023-03-05T04:45:37.238Z,3.51
2023-03-05T04:48:34.878Z,3.50
2023-03-05T04:51:32.316Z,3.50
2023-03-05T04:54:29.950Z,3.50
2023-03-05T04:57:27.405Z,3.49
2023-03-05T05:00:25.123Z,3.50
2023-03-05T05:03:22.600Z,3.49
2023-03-05T05:06:20.357Z,3.49
2023-03-05T05:09:18.133Z,3.49
2023-03-05T05:12:15.618Z,3.50
2023-03-05T05:15:13.351Z,3.51
2023-03-05T05:18:10.808Z,3.53
2023-03-05T05:21:08.592Z,3.54
2023-03-05T05:24:06.037Z,3.52
2023-03-05T05:27:03.808Z,3.52
2023-03-05T05:30:01.249Z,3.51
2023-03-05T05:32:58.886Z,3.52
2023-03-05T05:35:56.517Z,3.52
2023-03-05T05:38:53.973Z,3.52
2023-03-05T05:41:51.720Z,3.52
2023-03-05T05:44:49.172Z,3.53
2023-03-05T05:47:46.910Z,3.52
2023-03-05T05:50:44.356Z,3.53
2023-03-05T05:53:42.089Z,3.54
2023-03-05T05:56:39.503Z,3.55
2023-03-05T05:59:37.868Z,3.56
2023-03-05T06:02:35.298Z,3.57
2023-03-05T06:05:32.919Z,3.60
2023-03-05T06:08:30.381Z,3.61
2023-03-05T06:11:28.010Z,3.64
2023-03-05T06:14:25.754Z,3.66
2023-03-05T06:17:30.362Z,3.68
2023-03-05T06:20:28.754Z,3.71
2023-03-05T06:23:26.192Z,3.73
2023-03-05T06:26:23.652Z,3.75
2023-03-05T06:29:21.116Z,3.79
2023-03-05T06:32:18.777Z,3.81
2023-03-05T06:35:16.233Z,3.82
2023-03-05T06:38:13.986Z,3.82
2023-03-05T06:41:11.614Z,3.82
2023-03-05T06:44:09.349Z,3.83
2023-03-05T06:47:07.037Z,3.84
2023-03-05T06:50:04.480Z,3.85
2023-03-05T06:53:02.347Z,3.87
2023-03-05T06:55:59.822Z,3.88
2023-03-05T06:58:57.890Z,3.90
2023-03-05T07:01:55.326Z,3.91
2023-03-05T07:04:52.968Z,3.92
2023-03-05T07:07:50.424Z,3.95
2023-03-05T07:10:48.123Z,3.98
2023-03-05T07:13:47.911Z,4.01
2023-03-05T07:16:45.684Z,4.04
2023-03-05T07:19:44.003Z,4.07
2023-03-05T07:22:41.744Z,4.10
2023-03-05T07:25:39.515Z,4.14
2023-03-05T07:28:36.983Z,4.17
2023-03-05T07:31:34.768Z,4.20
2023-03-05T07:34:32.213Z,4.22
2023-03-05T07:37:29.881Z,4.27
2023-03-05T07:40:27.340Z,4.31
2023-03-05T07:43:25.017Z,4.36
2023-03-05T07:46:24.085Z,4.40
2023-03-05T07:49:22.706Z,4.45
2023-03-05T07:52:20.363Z,4.53
2023-03-05T07:55:17.821Z,4.59
2023-03-05T07:58:15.766Z,4.65
2023-03-05T08:01:14.580Z,4.72
2023-03-05T08:04:12.758Z,4.80
2023-03-05T08:07:10.258Z,4.91
2023-03-05T08:10:07.974Z,5.01
2023-03-05T08:13:05.441Z,5.09
2023-03-05T08:16:03.297Z,5.15
2023-03-05T08:19:00.964Z,5.20
2023-03-05T08:21:58.401Z,5.21
2023-03-05T08:24:56.097Z,5.24
2023-03-05T08:27:53.588Z,5.27
2023-03-05T08:30:51.436Z,5.32
2023-03-05T08:33:48.974Z,5.38
2023-03-05T08:36:48.363Z,5.42
2023-03-05T08:39:45.823Z,5.42
2023-03-05T08:42:43.658Z,5.43
2023-03-05T08:45:41.373Z,5.48
2023-03-05T08:48:38.941Z,5.56
2023-03-05T08:51:37.321Z,5.63
2023-03-05T08:54:34.777Z,5.69
2023-03-05T08:57:32.649Z,5.74
2023-03-05T09:00:30.108Z,5.79
2023-03-05T09:03:27.897Z,5.82
2023-03-05T09:06:25.437Z,5.84
2023-03-05T09:09:23.512Z,5.91
2023-03-05T09:12:21.380Z,6.02
2023-03-05T09:15:18.945Z,6.18
2023-03-05T09:18:16.813Z,6.36
2023-03-05T09:21:14.258Z,6.54
2023-03-05T09:24:12.107Z,6.72
2023-03-05T09:27:09.559Z,6.94
2023-03-05T09:30:09.637Z,7.13
2023-03-05T09:33:07.112Z,7.25
2023-03-05T09:36:05.054Z,7.34
2023-03-05T09:39:02.724Z,7.46
2023-03-05T09:42:00.171Z,7.62
2023-03-05T09:44:57.772Z,7.83
2023-03-05T09:47:55.258Z,8.14
2023-03-05T09:50:53.064Z,8.48
2023-03-05T09:53:50.498Z,8.73
2023-03-05T09:56:48.206Z,8.98
2023-03-05T09:59:46.039Z,9.29
2023-03-05T10:02:43.496Z,9.46
2023-03-05T10:05:41.229Z,10.02
2023-03-05T10:08:38.683Z,11.16
2023-03-05T10:11:36.379Z,12.41
2023-03-05T10:14:34.092Z,13.18
2023-03-05T10:17:33.714Z,13.77
2023-03-05T10:20:31.345Z,14.23
2023-03-05T10:23:29.726Z,14.36
2023-03-05T10:26:27.765Z,14.21
2023-03-05T10:29:25.786Z,13.91
2023-03-05T10:32:24.722Z,13.70
2023-03-05T10:35:22.654Z,13.82
2023-03-05T10:38:20.755Z,14.03
2023-03-05T10:41:18.433Z,14.11
2023-03-05T10:44:16.886Z,14.14
2023-03-05T10:47:14.747Z,13.89
2023-03-05T10:50:12.659Z,13.48
2023-03-05T10:53:10.431Z,13.21
2023-03-05T10:56:08.551Z,13.00
2023-03-05T10:59:06.102Z,12.85
2023-03-05T11:02:04.220Z,12.80
2023-03-05T11:05:05.140Z,13.21
2023-03-05T11:08:04.226Z,13.83
2023-03-05T11:11:03.882Z,14.67
2023-03-05T11:14:02.759Z,15.23
2023-03-05T11:17:01.159Z,15.32
2023-03-05T11:19:59.194Z,15.28
2023-03-05T11:22:57.159Z,15.26
2023-03-05T11:25:54.954Z,15.14
2023-03-05T11:28:53.318Z,14.81
2023-03-05T11:31:50.926Z,14.39
2023-03-05T11:34:48.666Z,14.05
2023-03-05T11:37:46.125Z,13.81
2023-03-05T11:40:45.974Z,13.67
2023-03-05T11:43:44.232Z,13.59
2023-03-05T11:46:42.094Z,13.46
2023-03-05T11:49:40.341Z,13.25
2023-03-05T11:52:37.873Z,13.00
2023-03-05T11:55:35.575Z,12.74
2023-03-05T11:58:35.066Z,12.44
2023-03-05T12:01:33.806Z,12.18
2023-03-05T12:04:31.696Z,11.95
2023-03-05T12:07:29.394Z,11.55
2023-03-05T12:10:27.266Z,11.07
2023-03-05T12:13:25.397Z,10.71
2023-03-05T12:16:25.210Z,10.45
2023-03-05T12:19:24.552Z,10.15
2023-03-05T12:22:23.166Z,9.82
2023-03-05T12:25:20.813Z,9.52
2023-03-05T12:28:20.019Z,9.37
2023-03-05T12:31:17.698Z,9.32
2023-03-05T12:34:15.390Z,9.36
2023-03-05T12:37:13.739Z,9.58
2023-03-05T12:40:13.047Z,9.89
2023-03-05T12:43:10.507Z,9.97
2023-03-05T12:46:09.123Z,9.82
2023-03-05T12:49:06.873Z,9.61
2023-03-05T12:52:05.361Z,9.50
2023-03-05T12:55:04.140Z,9.42
2023-03-05T12:58:02.150Z,9.26
2023-03-05T13:01:03.419Z,9.03
2023-03-05T13:04:01.153Z,8.77
2023-03-05T13:06:59.690Z,8.58
2023-03-05T13:10:01.038Z,8.47
2023-03-05T13:12:58.791Z,8.37
2023-03-05T13:15:58.740Z,8.28
2023-03-05T13:18:57.348Z,8.20
2023-03-05T13:21:55.883Z,8.10
2023-03-05T13:24:54.082Z,8.03
2023-03-05T13:27:52.958Z,7.94
2023-03-05T13:30:52.354Z,7.86
2023-03-05T13:33:52.994Z,7.81
2023-03-05T13:36:52.031Z,7.77
2023-03-05T13:39:50.921Z,7.71
2023-03-05T13:42:49.958Z,7.67
2023-03-05T13:45:47.889Z,7.60
2023-03-05T13:48:45.661Z,7.54
2023-03-05T13:51:44.009Z,7.47
2023-03-05T13:54:41.918Z,7.43
2023-03-05T13:57:41.803Z,7.37
2023-03-05T14:00:42.880Z,7.30
2023-03-05T14:03:40.923Z,7.25
2023-03-05T14:06:38.507Z,7.20
2023-03-05T14:09:36.991Z,7.17
2023-03-05T14:12:36.088Z,7.10
2023-03-05T14:15:37.591Z,7.04
2023-03-05T14:18:36.785Z,6.92
2023-03-05T14:21:35.376Z,6.84
2023-03-05T14:24:37.069Z,6.81
2023-03-05T14:27:35.466Z,6.79
2023-03-05T14:30:36.006Z,6.74
2023-03-05T14:33:34.990Z,6.71
2023-03-05T14:36:34.386Z,6.70
2023-03-05T14:39:34.617Z,6.69
2023-03-05T14:42:33.309Z,6.67
2023-03-05T14:45:32.740Z,6.67
2023-03-05T14:48:31.501Z,6.67
2023-03-05T14:51:31.321Z,6.68
2023-03-05T14:54:30.009Z,6.69
2023-03-05T14:57:29.315Z,6.68
2023-03-05T15:00:29.484Z,6.67
2023-03-05T15:03:28.833Z,6.66
2023-03-05T15:06:27.747Z,6.63
2023-03-05T15:09:27.549Z,6.58
2023-03-05T15:12:26.856Z,6.53
2023-03-05T15:15:25.024Z,6.49
2023-03-05T15:18:22.786Z,6.43
2023-03-05T15:21:21.480Z,6.39
2023-03-05T15:24:32.765Z,6.34
2023-03-05T15:27:31.758Z,6.30
2023-03-05T15:30:31.273Z,6.29
2023-03-05T15:33:34.193Z,6.26
2023-03-05T15:36:33.823Z,6.25
2023-03-05T15:39:37.593Z,6.25
2023-03-05T15:42:36.229Z,6.25
2023-03-05T15:45:34.857Z,6.26
2023-03-05T15:48:33.339Z,6.28
2023-03-05T15:51:34.055Z,6.29
2023-03-05T15:54:35.328Z,6.29
2023-03-05T15:57:34.594Z,6.28
2023-03-05T16:00:34.064Z,6.27
2023-03-05T16:03:33.004Z,6.25
2023-03-05T16:06:34.541Z,6.23
2023-03-05T16:09:33.688Z,6.22
2023-03-05T16:12:33.199Z,6.20
2023-03-05T16:15:34.540Z,6.19
2023-03-05T16:18:34.952Z,6.17
2023-03-05T16:21:38.273Z,6.15
2023-03-05T16:24:37.546Z,6.12
2023-03-05T16:27:37.319Z,6.10
2023-03-05T16:30:36.456Z,6.06
2023-03-05T16:33:35.906Z,6.01
2023-03-05T16:36:38.279Z,5.97
2023-03-05T16:39:37.779Z,5.94
2023-03-05T16:42:37.823Z,5.92
2023-03-05T16:45:38.475Z,5.90
2023-03-05T16:48:40.876Z,5.89
2023-03-05T16:51:40.816Z,5.87
2023-03-05T16:54:41.607Z,5.84
2023-03-05T16:57:40.670Z,5.82
2023-03-05T17:00:41.335Z,5.79
2023-03-05T17:03:42.457Z,5.77
2023-03-05T17:06:41.648Z,5.75
2023-03-05T17:09:40.538Z,5.73
2023-03-05T17:12:40.947Z,5.69
2023-03-05T17:15:39.152Z,5.65
2023-03-05T17:18:38.245Z,5.60
2023-03-05T17:21:36.426Z,5.58
2023-03-05T17:24:37.084Z,5.56
2023-03-05T17:27:37.136Z,5.57
2023-03-05T17:30:38.114Z,5.57
2023-03-05T17:33:38.386Z,5.58
2023-03-05T17:36:41.533Z,5.60
2023-03-05T17:39:41.106Z,5.60
2023-03-05T17:42:43.136Z,5.59
2023-03-05T17:45:42.606Z,5.58
2023-03-05T17:48:42.474Z,5.56
2023-03-05T17:51:43.060Z,5.54
2023-03-05T17:54:41.769Z,5.53
2023-03-05T17:57:41.717Z,5.52
2023-03-05T18:00:54.500Z,5.51
2023-03-05T18:03:54.475Z,5.50
2023-03-05T18:06:53.510Z,5.47
2023-03-05T18:09:53.575Z,5.46
2023-03-05T18:12:52.424Z,5.43
2023-03-05T18:15:54.251Z,5.41
2023-03-05T18:18:53.808Z,5.38
2023-03-05T18:21:53.071Z,5.36
2023-03-05T18:24:51.391Z,5.34
2023-03-05T18:27:50.578Z,5.33
2023-03-05T18:30:52.721Z,5.32
2023-03-05T18:33:52.356Z,5.32
2023-03-05T18:36:53.605Z,5.31
2023-03-05T18:39:59.070Z,5.29
2023-03-05T18:42:59.880Z,5.26
2023-03-05T18:46:01.181Z,5.23
2023-03-05T18:49:04.847Z,5.20
2023-03-05T18:52:04.460Z,5.17
2023-03-05T18:55:02.060Z,5.18
2023-03-05T18:58:02.245Z,5.17
2023-03-05T19:01:02.240Z,5.16
2023-03-05T19:04:03.996Z,5.15
2023-03-05T19:07:04.105Z,5.13
2023-03-05T19:10:07.795Z,5.12
2023-03-05T19:13:23.190Z,5.10
2023-03-05T19:16:22.602Z,5.07
2023-03-05T19:19:24.644Z,5.06
2023-03-05T19:22:23.811Z,5.05
2023-03-05T19:25:22.906Z,5.05
2023-03-05T19:28:22.569Z,5.05
2023-03-05T19:31:22.366Z,5.03
2023-03-05T19:34:21.748Z,5.02
2023-03-05T19:37:20.836Z,5.01
2023-03-05T19:40:21.760Z,4.99
2023-03-05T19:43:21.080Z,4.97
2023-03-05T19:46:21.465Z,4.95
2023-03-05T19:49:20.278Z,4.93
2023-03-05T19:52:19.499Z,4.91
2023-03-05T19:55:18.809Z,4.90
2023-03-05T19:58:18.006Z,4.88
2023-03-05T20:01:17.014Z,4.86
2023-03-05T20:04:17.594Z,4.84
2023-03-05T20:07:16.939Z,4.82
2023-03-05T20:10:15.316Z,4.81
2023-03-05T20:13:15.853Z,4.79
2023-03-05T20:16:14.807Z,4.77
2023-03-05T20:19:15.206Z,4.74
2023-03-05T20:22:14.549Z,4.73
2023-03-05T20:25:13.677Z,4.71
2023-03-05T20:28:12.022Z,4.69
2023-03-05T20:31:10.830Z,4.68
2023-03-05T20:34:13.433Z,4.65
2023-03-05T20:37:14.066Z,4.64
2023-03-05T20:40:12.352Z,4.62
2023-03-05T20:43:11.753Z,4.61
2023-03-05T20:46:12.711Z,4.60
2023-03-05T20:49:11.795Z,4.59
2023-03-05T20:52:10.792Z,4.58
2023-03-05T20:55:10.400Z,4.57
2023-03-05T20:58:09.615Z,4.56
2023-03-05T21:01:08.164Z,4.56
2023-03-05T21:04:06.695Z,4.55
2023-03-05T21:07:04.852Z,4.54
2023-03-05T21:10:04.362Z,4.52
2023-03-05T21:13:03.652Z,4.51
2023-03-05T21:16:01.614Z,4.49
2023-03-05T21:18:59.115Z,4.48
2023-03-05T21:21:58.099Z,4.46
2023-03-05T21:25:02.348Z,4.45
2023-03-05T21:28:00.997Z,4.43
2023-03-05T21:30:59.464Z,4.43
2023-03-05T21:33:58.273Z,4.42
2023-03-05T21:36:56.764Z,4.40
2023-03-05T21:39:54.274Z,4.38
2023-03-05T21:42:53.113Z,4.37
2023-03-05T21:45:52.631Z,4.36
2023-03-05T21:48:50.510Z,4.34
2023-03-05T21:52:01.086Z,4.33
2023-03-05T21:54:59.589Z,4.31
2023-03-05T21:57:57.100Z,4.30
2023-03-05T22:00:54.784Z,4.29
2023-03-05T22:03:52.383Z,4.29
2023-03-05T22:06:50.138Z,4.29
2023-03-05T22:09:47.860Z,4.29
2023-03-05T22:12:54.458Z,4.28
2023-03-05T22:15:52.250Z,4.27
2023-03-05T22:18:49.893Z,4.25
2023-03-05T22:21:47.339Z,4.23
2023-03-05T22:24:44.957Z,4.23
2023-03-05T22:27:42.402Z,4.23
2023-03-05T22:30:40.472Z,4.23
2023-03-05T22:33:38.014Z,4.23
2023-03-05T22:36:35.749Z,4.23
2023-03-05T22:39:33.178Z,4.24
2023-03-05T22:42:30.642Z,4.25
2023-03-05T22:45:28.119Z,4.29
2023-03-05T22:48:25.908Z,4.34
2023-03-05T22:51:23.671Z,4.39
2023-03-05T22:54:21.077Z,4.43
2023-03-05T22:57:18.783Z,4.46
2023-03-05T23:00:16.212Z,4.49
2023-03-05T23:03:14.027Z,4.52
2023-03-05T23:06:11.533Z,4.55
2023-03-05T23:09:09.177Z,4.57
2023-03-05T23:12:06.588Z,4.58
2023-03-05T23:15:05.204Z,4.60
2023-03-05T23:18:02.845Z,4.61
2023-03-05T23:21:00.276Z,4.63
2023-03-05T23:23:58.033Z,4.63
2023-03-05T23:26:55.482Z,4.62
2023-03-05T23:30:06.271Z,4.63
2023-03-05T23:33:04.260Z,4.63
2023-03-05T23:36:01.992Z,4.62
2023-03-05T23:38:59.825Z,4.62
2023-03-05T23:41:57.278Z,4.63
2023-03-05T23:44:55.762Z,4.63
2023-03-05T23:47:53.275Z,4.63
2023-03-05T23:50:51.058Z,4.62
2023-03-05T23:53:48.990Z,4.61
2023-03-05T23:56:46.621Z,4.60
2023-03-05T23:59:44.060Z,4.59
